sensor_id;sensor_type;location;lat;lon;timestamp;P1;durP1;ratioP1;P2;durP2;ratioP2
18822;SDS011;9540;51.550;7.980;2023-05-21T00:00:36;14.63;;;9.32;;
18822;SDS011;9540;51.550;7.980;2023-05-21T00:03:03;15.25;;;10.05;;
18822;SDS011;9540;51.550;7.980;2023-05-21T00:05:37;19.05;;;10.45;;
18822;SDS011;9540;51.550;7.980;2023-05-21T00:08:05;15.35;;;10.45;;
18822;SDS011;9540;51.550;7.980;2023-05-21T00:10:33;16.83;;;10.98;;
18822;SDS011;9540;51.550;7.980;2023-05-21T00:13:03;14.95;;;10.15;;
18822;SDS011;9540;51.550;7.980;2023-05-21T00:15:30;14.30;;;10.35;;
18822;SDS011;9540;51.550;7.980;2023-05-21T00:17:57;14.80;;;10.38;;
18822;SDS011;9540;51.550;7.980;2023-05-21T00:20:25;13.65;;;9.70;;
18822;SDS011;9540;51.550;7.980;2023-05-21T00:22:53;14.75;;;8.52;;
18822;SDS011;9540;51.550;7.980;2023-05-21T00:25:20;13.00;;;9.30;;
18822;SDS011;9540;51.550;7.980;2023-05-21T00:27:48;11.43;;;8.85;;
18822;SDS011;9540;51.550;7.980;2023-05-21T00:30:16;12.95;;;8.63;;
18822;SDS011;9540;51.550;7.980;2023-05-21T00:32:44;14.00;;;10.38;;
18822;SDS011;9540;51.550;7.980;2023-05-21T00:35:11;14.80;;;10.35;;
18822;SDS011;9540;51.550;7.980;2023-05-21T00:37:39;14.27;;;9.98;;
18822;SDS011;9540;51.550;7.980;2023-05-21T00:40:07;17.00;;;10.18;;
18822;SDS011;9540;51.550;7.980;2023-05-21T00:42:35;16.95;;;10.90;;
18822;SDS011;9540;51.550;7.980;2023-05-21T00:45:05;13.13;;;9.35;;
18822;SDS011;9540;51.550;7.980;2023-05-21T00:47:35;15.70;;;10.02;;
18822;SDS011;9540;51.550;7.980;2023-05-21T00:50:03;14.93;;;10.55;;
18822;SDS011;9540;51.550;7.980;2023-05-21T00:52:31;16.10;;;10.32;;
18822;SDS011;9540;51.550;7.980;2023-05-21T00:55:05;13.35;;;9.63;;
18822;SDS011;9540;51.550;7.980;2023-05-21T00:57:34;17.02;;;10.52;;
18822;SDS011;9540;51.550;7.980;2023-05-21T01:00:03;15.93;;;11.25;;
18822;SDS011;9540;51.550;7.980;2023-05-21T01:02:34;14.32;;;10.30;;
18822;SDS011;9540;51.550;7.980;2023-05-21T01:05:03;17.40;;;10.55;;
18822;SDS011;9540;51.550;7.980;2023-05-21T01:07:31;16.33;;;10.77;;
18822;SDS011;9540;51.550;7.980;2023-05-21T01:10:00;15.30;;;9.75;;
18822;SDS011;9540;51.550;7.980;2023-05-21T01:12:30;12.65;;;10.02;;
18822;SDS011;9540;51.550;7.980;2023-05-21T01:14:58;13.63;;;10.35;;
18822;SDS011;9540;51.550;7.980;2023-05-21T01:17:27;15.52;;;10.65;;
18822;SDS011;9540;51.550;7.980;2023-05-21T01:19:57;13.80;;;9.93;;
18822;SDS011;9540;51.550;7.980;2023-05-21T01:22:25;15.38;;;9.60;;
18822;SDS011;9540;51.550;7.980;2023-05-21T01:24:56;13.20;;;9.60;;
18822;SDS011;9540;51.550;7.980;2023-05-21T01:27:26;15.07;;;10.45;;
18822;SDS011;9540;51.550;7.980;2023-05-21T01:29:54;15.88;;;10.63;;
18822;SDS011;9540;51.550;7.980;2023-05-21T01:32:23;16.75;;;10.45;;
18822;SDS011;9540;51.550;7.980;2023-05-21T01:34:55;14.88;;;10.40;;
18822;SDS011;9540;51.550;7.980;2023-05-21T01:37:28;16.65;;;11.60;;
18822;SDS011;9540;51.550;7.980;2023-05-21T01:40:01;15.98;;;11.43;;
18822;SDS011;9540;51.550;7.980;2023-05-21T01:42:34;14.57;;;10.20;;
18822;SDS011;9540;51.550;7.980;2023-05-21T01:45:05;11.48;;;8.95;;
18822;SDS011;9540;51.550;7.980;2023-05-21T01:47:34;17.27;;;9.80;;
18822;SDS011;9540;51.550;7.980;2023-05-21T01:50:02;16.17;;;10.63;;
18822;SDS011;9540;51.550;7.980;2023-05-21T01:52:31;13.15;;;9.35;;
18822;SDS011;9540;51.550;7.980;2023-05-21T01:55:00;20.05;;;11.43;;
18822;SDS011;9540;51.550;7.980;2023-05-21T01:57:28;15.95;;;10.18;;
18822;SDS011;9540;51.550;7.980;2023-05-21T01:59:55;15.23;;;10.35;;
18822;SDS011;9540;51.550;7.980;2023-05-21T02:02:23;15.80;;;10.30;;
18822;SDS011;9540;51.550;7.980;2023-05-21T02:04:51;14.48;;;10.88;;
18822;SDS011;9540;51.550;7.980;2023-05-21T02:07:18;17.67;;;11.00;;
18822;SDS011;9540;51.550;7.980;2023-05-21T02:09:46;16.88;;;11.02;;
18822;SDS011;9540;51.550;7.980;2023-05-21T02:12:15;18.80;;;10.60;;
18822;SDS011;9540;51.550;7.980;2023-05-21T02:14:42;16.20;;;10.15;;
18822;SDS011;9540;51.550;7.980;2023-05-21T02:17:10;13.63;;;10.02;;
18822;SDS011;9540;51.550;7.980;2023-05-21T02:19:38;14.68;;;10.13;;
18822;SDS011;9540;51.550;7.980;2023-05-21T02:22:05;15.10;;;10.35;;
18822;SDS011;9540;51.550;7.980;2023-05-21T02:24:33;16.48;;;10.90;;
18822;SDS011;9540;51.550;7.980;2023-05-21T02:27:00;12.10;;;9.25;;
18822;SDS011;9540;51.550;7.980;2023-05-21T02:29:31;14.88;;;10.15;;
18822;SDS011;9540;51.550;7.980;2023-05-21T02:31:59;12.10;;;8.98;;
18822;SDS011;9540;51.550;7.980;2023-05-21T02:34:26;18.08;;;10.18;;
18822;SDS011;9540;51.550;7.980;2023-05-21T02:36:56;14.55;;;10.32;;
18822;SDS011;9540;51.550;7.980;2023-05-21T02:39:24;20.20;;;10.80;;
18822;SDS011;9540;51.550;7.980;2023-05-21T02:41:51;20.92;;;11.60;;
18822;SDS011;9540;51.550;7.980;2023-05-21T02:44:19;14.45;;;9.77;;
18822;SDS011;9540;51.550;7.980;2023-05-21T02:46:49;18.02;;;10.95;;
18822;SDS011;9540;51.550;7.980;2023-05-21T02:49:16;16.27;;;10.35;;
18822;SDS011;9540;51.550;7.980;2023-05-21T02:51:44;18.80;;;11.32;;
18822;SDS011;9540;51.550;7.980;2023-05-21T02:54:11;17.55;;;11.95;;
18822;SDS011;9540;51.550;7.980;2023-05-21T02:56:38;21.30;;;11.75;;
18822;SDS011;9540;51.550;7.980;2023-05-21T02:59:06;17.45;;;11.65;;
18822;SDS011;9540;51.550;7.980;2023-05-21T03:01:33;17.38;;;11.60;;
18822;SDS011;9540;51.550;7.980;2023-05-21T03:04:02;17.45;;;10.77;;
18822;SDS011;9540;51.550;7.980;2023-05-21T03:06:30;18.15;;;11.27;;
18822;SDS011;9540;51.550;7.980;2023-05-21T03:08:58;16.52;;;11.70;;
18822;SDS011;9540;51.550;7.980;2023-05-21T03:11:26;18.65;;;10.43;;
18822;SDS011;9540;51.550;7.980;2023-05-21T03:13:53;17.10;;;12.43;;
18822;SDS011;9540;51.550;7.980;2023-05-21T03:16:21;16.60;;;11.40;;
18822;SDS011;9540;51.550;7.980;2023-05-21T03:18:48;17.55;;;12.43;;
18822;SDS011;9540;51.550;7.980;2023-05-21T03:21:17;17.38;;;11.50;;
18822;SDS011;9540;51.550;7.980;2023-05-21T03:23:47;21.77;;;12.65;;
18822;SDS011;9540;51.550;7.980;2023-05-21T03:26:15;16.45;;;10.77;;
18822;SDS011;9540;51.550;7.980;2023-05-21T03:28:43;17.33;;;11.95;;
18822;SDS011;9540;51.550;7.980;2023-05-21T03:31:10;15.55;;;10.65;;
18822;SDS011;9540;51.550;7.980;2023-05-21T03:33:38;16.60;;;11.40;;
18822;SDS011;9540;51.550;7.980;2023-05-21T03:36:05;21.95;;;10.63;;
18822;SDS011;9540;51.550;7.980;2023-05-21T03:38:34;15.25;;;11.02;;
18822;SDS011;9540;51.550;7.980;2023-05-21T03:41:02;17.40;;;10.70;;
18822;SDS011;9540;51.550;7.980;2023-05-21T03:43:30;18.15;;;11.13;;
18822;SDS011;9540;51.550;7.980;2023-05-21T03:45:57;15.15;;;10.70;;
18822;SDS011;9540;51.550;7.980;2023-05-21T03:48:24;19.08;;;11.70;;
18822;SDS011;9540;51.550;7.980;2023-05-21T03:50:52;17.75;;;11.93;;
18822;SDS011;9540;51.550;7.980;2023-05-21T03:53:19;19.58;;;12.35;;
18822;SDS011;9540;51.550;7.980;2023-05-21T03:55:48;18.98;;;11.88;;
18822;SDS011;9540;51.550;7.980;2023-05-21T03:58:19;16.13;;;12.00;;
18822;SDS011;9540;51.550;7.980;2023-05-21T04:00:46;18.77;;;11.48;;
18822;SDS011;9540;51.550;7.980;2023-05-21T04:03:14;17.77;;;11.63;;
18822;SDS011;9540;51.550;7.980;2023-05-21T04:05:42;16.85;;;11.85;;
18822;SDS011;9540;51.550;7.980;2023-05-21T04:08:09;21.17;;;12.80;;
18822;SDS011;9540;51.550;7.980;2023-05-21T04:10:37;20.60;;;11.68;;
18822;SDS011;9540;51.550;7.980;2023-05-21T04:13:06;17.30;;;11.75;;
18822;SDS011;9540;51.550;7.980;2023-05-21T04:15:33;16.17;;;11.35;;
18822;SDS011;9540;51.550;7.980;2023-05-21T04:18:02;19.50;;;12.30;;
18822;SDS011;9540;51.550;7.980;2023-05-21T04:20:31;16.33;;;11.18;;
18822;SDS011;9540;51.550;7.980;2023-05-21T04:22:58;16.42;;;11.68;;
18822;SDS011;9540;51.550;7.980;2023-05-21T04:25:27;19.42;;;12.30;;
18822;SDS011;9540;51.550;7.980;2023-05-21T04:27:54;16.55;;;11.65;;
18822;SDS011;9540;51.550;7.980;2023-05-21T04:30:23;15.70;;;11.23;;
18822;SDS011;9540;51.550;7.980;2023-05-21T04:32:50;18.58;;;11.95;;
18822;SDS011;9540;51.550;7.980;2023-05-21T04:35:19;20.65;;;13.55;;
18822;SDS011;9540;51.550;7.980;2023-05-21T04:37:47;19.00;;;12.98;;
18822;SDS011;9540;51.550;7.980;2023-05-21T04:40:14;15.95;;;11.32;;
18822;SDS011;9540;51.550;7.980;2023-05-21T04:42:42;19.42;;;12.73;;
18822;SDS011;9540;51.550;7.980;2023-05-21T04:45:10;19.50;;;13.45;;
18822;SDS011;9540;51.550;7.980;2023-05-21T04:47:39;17.83;;;11.48;;
18822;SDS011;9540;51.550;7.980;2023-05-21T04:50:08;18.63;;;12.15;;
18822;SDS011;9540;51.550;7.980;2023-05-21T04:52:36;21.60;;;13.32;;
18822;SDS011;9540;51.550;7.980;2023-05-21T04:55:05;21.27;;;13.88;;
18822;SDS011;9540;51.550;7.980;2023-05-21T04:57:33;18.75;;;11.68;;
18822;SDS011;9540;51.550;7.980;2023-05-21T05:00:01;20.13;;;13.68;;
18822;SDS011;9540;51.550;7.980;2023-05-21T05:02:30;19.38;;;12.63;;
18822;SDS011;9540;51.550;7.980;2023-05-21T05:04:58;22.55;;;14.57;;
18822;SDS011;9540;51.550;7.980;2023-05-21T05:07:26;19.73;;;12.43;;
18822;SDS011;9540;51.550;7.980;2023-05-21T05:09:53;22.83;;;13.65;;
18822;SDS011;9540;51.550;7.980;2023-05-21T05:12:20;19.13;;;12.68;;
18822;SDS011;9540;51.550;7.980;2023-05-21T05:14:47;20.98;;;13.05;;
18822;SDS011;9540;51.550;7.980;2023-05-21T05:17:14;18.98;;;13.90;;
18822;SDS011;9540;51.550;7.980;2023-05-21T05:19:42;20.75;;;12.45;;
18822;SDS011;9540;51.550;7.980;2023-05-21T05:22:11;21.33;;;13.55;;
18822;SDS011;9540;51.550;7.980;2023-05-21T05:24:38;18.13;;;12.93;;
18822;SDS011;9540;51.550;7.980;2023-05-21T05:27:05;21.83;;;13.40;;
18822;SDS011;9540;51.550;7.980;2023-05-21T05:29:33;22.40;;;14.15;;
18822;SDS011;9540;51.550;7.980;2023-05-21T05:32:00;21.02;;;13.55;;
18822;SDS011;9540;51.550;7.980;2023-05-21T05:34:27;22.10;;;13.85;;
18822;SDS011;9540;51.550;7.980;2023-05-21T05:36:54;17.88;;;13.18;;
18822;SDS011;9540;51.550;7.980;2023-05-21T05:39:23;18.35;;;13.65;;
18822;SDS011;9540;51.550;7.980;2023-05-21T05:41:50;18.98;;;13.25;;
18822;SDS011;9540;51.550;7.980;2023-05-21T05:44:18;22.45;;;14.05;;
18822;SDS011;9540;51.550;7.980;2023-05-21T05:46:45;20.42;;;13.82;;
18822;SDS011;9540;51.550;7.980;2023-05-21T05:49:12;19.25;;;13.73;;
18822;SDS011;9540;51.550;7.980;2023-05-21T05:51:39;18.70;;;13.23;;
18822;SDS011;9540;51.550;7.980;2023-05-21T05:54:07;18.73;;;12.88;;
18822;SDS011;9540;51.550;7.980;2023-05-21T05:56:35;21.48;;;14.18;;
18822;SDS011;9540;51.550;7.980;2023-05-21T05:59:02;15.75;;;12.52;;
18822;SDS011;9540;51.550;7.980;2023-05-21T06:01:30;17.67;;;12.43;;
18822;SDS011;9540;51.550;7.980;2023-05-21T06:03:57;16.50;;;12.82;;
18822;SDS011;9540;51.550;7.980;2023-05-21T06:06:24;17.48;;;12.75;;
18822;SDS011;9540;51.550;7.980;2023-05-21T06:08:52;17.98;;;12.98;;
18822;SDS011;9540;51.550;7.980;2023-05-21T06:11:19;19.70;;;12.68;;
18822;SDS011;9540;51.550;7.980;2023-05-21T06:13:48;18.27;;;12.27;;
18822;SDS011;9540;51.550;7.980;2023-05-21T06:16:15;20.08;;;13.65;;
18822;SDS011;9540;51.550;7.980;2023-05-21T06:18:42;16.20;;;11.98;;
18822;SDS011;9540;51.550;7.980;2023-05-21T06:21:12;16.23;;;12.85;;
18822;SDS011;9540;51.550;7.980;2023-05-21T06:23:39;17.00;;;13.30;;
18822;SDS011;9540;51.550;7.980;2023-05-21T06:26:07;16.70;;;12.80;;
18822;SDS011;9540;51.550;7.980;2023-05-21T06:28:34;17.42;;;12.82;;
18822;SDS011;9540;51.550;7.980;2023-05-21T06:31:03;16.35;;;11.85;;
18822;SDS011;9540;51.550;7.980;2023-05-21T06:33:30;19.15;;;12.55;;
18822;SDS011;9540;51.550;7.980;2023-05-21T06:35:57;18.38;;;13.23;;
18822;SDS011;9540;51.550;7.980;2023-05-21T06:38:24;19.77;;;13.90;;
18822;SDS011;9540;51.550;7.980;2023-05-21T06:40:51;16.98;;;12.57;;
18822;SDS011;9540;51.550;7.980;2023-05-21T06:43:19;18.70;;;12.65;;
18822;SDS011;9540;51.550;7.980;2023-05-21T06:45:46;16.77;;;12.77;;
18822;SDS011;9540;51.550;7.980;2023-05-21T06:48:14;17.08;;;12.95;;
18822;SDS011;9540;51.550;7.980;2023-05-21T06:50:41;18.23;;;13.07;;
18822;SDS011;9540;51.550;7.980;2023-05-21T06:53:09;16.05;;;11.88;;
18822;SDS011;9540;51.550;7.980;2023-05-21T06:55:37;16.88;;;12.07;;
18822;SDS011;9540;51.550;7.980;2023-05-21T06:58:07;18.05;;;11.85;;
18822;SDS011;9540;51.550;7.980;2023-05-21T07:00:35;15.93;;;12.27;;
18822;SDS011;9540;51.550;7.980;2023-05-21T07:03:02;14.55;;;11.38;;
18822;SDS011;9540;51.550;7.980;2023-05-21T07:05:31;16.17;;;12.23;;
18822;SDS011;9540;51.550;7.980;2023-05-21T07:07:58;16.27;;;11.73;;
18822;SDS011;9540;51.550;7.980;2023-05-21T07:10:26;16.45;;;11.95;;
18822;SDS011;9540;51.550;7.980;2023-05-21T07:12:53;17.98;;;11.80;;
18822;SDS011;9540;51.550;7.980;2023-05-21T07:15:20;19.63;;;11.73;;
18822;SDS011;9540;51.550;7.980;2023-05-21T07:17:47;15.10;;;12.07;;
18822;SDS011;9540;51.550;7.980;2023-05-21T07:20:14;16.13;;;12.05;;
18822;SDS011;9540;51.550;7.980;2023-05-21T07:22:43;15.35;;;11.90;;
18822;SDS011;9540;51.550;7.980;2023-05-21T07:25:10;15.98;;;12.00;;
18822;SDS011;9540;51.550;7.980;2023-05-21T07:27:38;15.30;;;11.77;;
18822;SDS011;9540;51.550;7.980;2023-05-21T07:30:06;15.32;;;10.75;;
18822;SDS011;9540;51.550;7.980;2023-05-21T07:32:34;13.80;;;10.90;;
18822;SDS011;9540;51.550;7.980;2023-05-21T07:35:01;17.02;;;12.40;;
18822;SDS011;9540;51.550;7.980;2023-05-21T07:37:29;15.85;;;11.27;;
18822;SDS011;9540;51.550;7.980;2023-05-21T07:39:58;15.75;;;11.20;;
18822;SDS011;9540;51.550;7.980;2023-05-21T07:42:25;16.08;;;11.23;;
18822;SDS011;9540;51.550;7.980;2023-05-21T07:44:52;14.18;;;11.02;;
18822;SDS011;9540;51.550;7.980;2023-05-21T07:47:19;15.43;;;11.70;;
18822;SDS011;9540;51.550;7.980;2023-05-21T07:49:50;19.98;;;11.50;;
18822;SDS011;9540;51.550;7.980;2023-05-21T07:52:17;14.93;;;10.48;;
18822;SDS011;9540;51.550;7.980;2023-05-21T07:54:44;17.30;;;11.93;;
18822;SDS011;9540;51.550;7.980;2023-05-21T07:57:13;18.40;;;12.32;;
18822;SDS011;9540;51.550;7.980;2023-05-21T07:59:40;16.13;;;10.73;;
18822;SDS011;9540;51.550;7.980;2023-05-21T08:02:07;17.33;;;12.68;;
18822;SDS011;9540;51.550;7.980;2023-05-21T08:04:35;18.88;;;12.73;;
18822;SDS011;9540;51.550;7.980;2023-05-21T08:07:02;19.48;;;11.35;;
18822;SDS011;9540;51.550;7.980;2023-05-21T08:09:30;14.85;;;11.32;;
18822;SDS011;9540;51.550;7.980;2023-05-21T08:11:57;15.20;;;11.77;;
18822;SDS011;9540;51.550;7.980;2023-05-21T08:14:25;16.40;;;12.38;;
18822;SDS011;9540;51.550;7.980;2023-05-21T08:16:53;16.10;;;12.63;;
18822;SDS011;9540;51.550;7.980;2023-05-21T08:19:20;14.95;;;11.40;;
18822;SDS011;9540;51.550;7.980;2023-05-21T08:21:47;15.23;;;11.57;;
18822;SDS011;9540;51.550;7.980;2023-05-21T08:24:14;15.20;;;11.90;;
18822;SDS011;9540;51.550;7.980;2023-05-21T08:26:41;14.18;;;10.90;;
18822;SDS011;9540;51.550;7.980;2023-05-21T08:29:09;14.07;;;11.35;;
18822;SDS011;9540;51.550;7.980;2023-05-21T08:31:37;16.55;;;12.48;;
18822;SDS011;9540;51.550;7.980;2023-05-21T08:34:05;16.77;;;11.80;;
18822;SDS011;9540;51.550;7.980;2023-05-21T08:36:32;15.57;;;12.02;;
18822;SDS011;9540;51.550;7.980;2023-05-21T08:39:00;14.18;;;11.82;;
18822;SDS011;9540;51.550;7.980;2023-05-21T08:41:27;16.90;;;12.35;;
18822;SDS011;9540;51.550;7.980;2023-05-21T08:44:00;15.93;;;11.30;;
18822;SDS011;9540;51.550;7.980;2023-05-21T08:46:31;17.83;;;11.93;;
18822;SDS011;9540;51.550;7.980;2023-05-21T08:49:01;16.95;;;13.15;;
18822;SDS011;9540;51.550;7.980;2023-05-21T08:51:29;17.58;;;12.50;;
18822;SDS011;9540;51.550;7.980;2023-05-21T08:53:57;20.25;;;13.25;;
18822;SDS011;9540;51.550;7.980;2023-05-21T08:56:26;17.67;;;12.52;;
18822;SDS011;9540;51.550;7.980;2023-05-21T08:58:56;16.67;;;12.55;;
18822;SDS011;9540;51.550;7.980;2023-05-21T09:01:24;17.40;;;12.35;;
18822;SDS011;9540;51.550;7.980;2023-05-21T09:03:52;17.08;;;12.18;;
18822;SDS011;9540;51.550;7.980;2023-05-21T09:06:23;17.55;;;12.93;;
18822;SDS011;9540;51.550;7.980;2023-05-21T09:08:53;17.63;;;12.48;;
18822;SDS011;9540;51.550;7.980;2023-05-21T09:11:25;17.13;;;13.52;;
18822;SDS011;9540;51.550;7.980;2023-05-21T09:13:52;17.60;;;12.80;;
18822;SDS011;9540;51.550;7.980;2023-05-21T09:16:20;19.67;;;13.40;;
18822;SDS011;9540;51.550;7.980;2023-05-21T09:18:47;16.83;;;13.25;;
18822;SDS011;9540;51.550;7.980;2023-05-21T09:21:24;18.20;;;13.93;;
18822;SDS011;9540;51.550;7.980;2023-05-21T09:23:53;15.20;;;12.00;;
18822;SDS011;9540;51.550;7.980;2023-05-21T09:26:21;19.08;;;13.77;;
18822;SDS011;9540;51.550;7.980;2023-05-21T09:28:48;16.10;;;12.27;;
18822;SDS011;9540;51.550;7.980;2023-05-21T09:31:16;19.95;;;15.07;;
18822;SDS011;9540;51.550;7.980;2023-05-21T09:33:46;20.58;;;13.82;;
18822;SDS011;9540;51.550;7.980;2023-05-21T09:36:13;16.02;;;13.05;;
18822;SDS011;9540;51.550;7.980;2023-05-21T09:38:45;20.00;;;14.32;;
18822;SDS011;9540;51.550;7.980;2023-05-21T09:41:13;18.77;;;14.40;;
18822;SDS011;9540;51.550;7.980;2023-05-21T09:43:40;18.30;;;14.20;;
18822;SDS011;9540;51.550;7.980;2023-05-21T09:46:08;16.27;;;11.68;;
18822;SDS011;9540;51.550;7.980;2023-05-21T09:48:36;20.60;;;14.57;;
18822;SDS011;9540;51.550;7.980;2023-05-21T09:51:14;19.17;;;13.48;;
18822;SDS011;9540;51.550;7.980;2023-05-21T09:53:50;18.73;;;13.73;;
18822;SDS011;9540;51.550;7.980;2023-05-21T09:56:19;17.27;;;13.52;;
18822;SDS011;9540;51.550;7.980;2023-05-21T09:58:50;17.25;;;13.48;;
18822;SDS011;9540;51.550;7.980;2023-05-21T10:01:19;19.38;;;13.43;;
18822;SDS011;9540;51.550;7.980;2023-05-21T10:03:49;21.67;;;14.93;;
18822;SDS011;9540;51.550;7.980;2023-05-21T10:06:20;19.98;;;15.38;;
18822;SDS011;9540;51.550;7.980;2023-05-21T10:08:53;19.08;;;14.02;;
18822;SDS011;9540;51.550;7.980;2023-05-21T10:11:22;24.02;;;16.42;;
18822;SDS011;9540;51.550;7.980;2023-05-21T10:13:52;18.67;;;14.15;;
18822;SDS011;9540;51.550;7.980;2023-05-21T10:16:23;18.40;;;14.07;;
18822;SDS011;9540;51.550;7.980;2023-05-21T10:18:50;21.55;;;14.38;;
18822;SDS011;9540;51.550;7.980;2023-05-21T10:21:18;19.88;;;13.50;;
18822;SDS011;9540;51.550;7.980;2023-05-21T10:23:47;17.30;;;14.35;;
18822;SDS011;9540;51.550;7.980;2023-05-21T10:26:17;20.20;;;14.80;;
18822;SDS011;9540;51.550;7.980;2023-05-21T10:28:45;15.85;;;13.10;;
18822;SDS011;9540;51.550;7.980;2023-05-21T10:31:14;20.80;;;15.18;;
18822;SDS011;9540;51.550;7.980;2023-05-21T10:33:41;17.65;;;13.85;;
18822;SDS011;9540;51.550;7.980;2023-05-21T10:36:09;19.33;;;13.93;;
18822;SDS011;9540;51.550;7.980;2023-05-21T10:38:37;21.33;;;14.60;;
18822;SDS011;9540;51.550;7.980;2023-05-21T10:41:04;21.83;;;15.93;;
18822;SDS011;9540;51.550;7.980;2023-05-21T10:43:37;20.20;;;15.82;;
18822;SDS011;9540;51.550;7.980;2023-05-21T10:46:27;20.95;;;14.73;;
18822;SDS011;9540;51.550;7.980;2023-05-21T10:49:20;18.83;;;14.18;;
18822;SDS011;9540;51.550;7.980;2023-05-21T10:52:01;17.20;;;13.00;;
18822;SDS011;9540;51.550;7.980;2023-05-21T10:54:45;21.23;;;15.45;;
18822;SDS011;9540;51.550;7.980;2023-05-21T10:57:23;20.83;;;14.23;;
18822;SDS011;9540;51.550;7.980;2023-05-21T11:00:18;20.35;;;14.70;;
18822;SDS011;9540;51.550;7.980;2023-05-21T11:02:46;16.88;;;12.38;;
18822;SDS011;9540;51.550;7.980;2023-05-21T11:05:16;18.02;;;14.15;;
18822;SDS011;9540;51.550;7.980;2023-05-21T11:07:59;22.00;;;14.43;;
18822;SDS011;9540;51.550;7.980;2023-05-21T11:10:30;21.00;;;15.27;;
18822;SDS011;9540;51.550;7.980;2023-05-21T11:13:05;19.67;;;14.90;;
18822;SDS011;9540;51.550;7.980;2023-05-21T11:19:00;21.80;;;14.88;;
18822;SDS011;9540;51.550;7.980;2023-05-21T11:21:28;19.83;;;14.32;;
18822;SDS011;9540;51.550;7.980;2023-05-21T11:24:00;20.75;;;15.90;;
18822;SDS011;9540;51.550;7.980;2023-05-21T11:32:13;21.70;;;16.05;;
18822;SDS011;9540;51.550;7.980;2023-05-21T11:34:42;21.67;;;15.05;;
18822;SDS011;9540;51.550;7.980;2023-05-21T11:37:27;20.70;;;14.50;;
18822;SDS011;9540;51.550;7.980;2023-05-21T11:40:00;19.30;;;14.48;;
18822;SDS011;9540;51.550;7.980;2023-05-21T11:42:48;24.00;;;15.38;;
18822;SDS011;9540;51.550;7.980;2023-05-21T11:45:17;20.55;;;14.38;;
18822;SDS011;9540;51.550;7.980;2023-05-21T11:47:47;21.10;;;15.15;;
18822;SDS011;9540;51.550;7.980;2023-05-21T11:50:15;21.00;;;15.48;;
18822;SDS011;9540;51.550;7.980;2023-05-21T11:52:43;25.80;;;17.23;;
18822;SDS011;9540;51.550;7.980;2023-05-21T11:55:10;19.88;;;15.40;;
18822;SDS011;9540;51.550;7.980;2023-05-21T11:57:40;21.02;;;15.52;;
18822;SDS011;9540;51.550;7.980;2023-05-21T12:00:12;22.20;;;16.35;;
18822;SDS011;9540;51.550;7.980;2023-05-21T12:02:43;20.70;;;14.63;;
18822;SDS011;9540;51.550;7.980;2023-05-21T12:05:13;20.73;;;14.15;;
18822;SDS011;9540;51.550;7.980;2023-05-21T12:07:40;18.58;;;14.50;;
18822;SDS011;9540;51.550;7.980;2023-05-21T12:10:08;20.80;;;15.27;;
18822;SDS011;9540;51.550;7.980;2023-05-21T12:12:36;17.20;;;14.10;;
18822;SDS011;9540;51.550;7.980;2023-05-21T12:15:03;17.20;;;12.90;;
18822;SDS011;9540;51.550;7.980;2023-05-21T12:17:31;18.38;;;14.93;;
18822;SDS011;9540;51.550;7.980;2023-05-21T12:19:58;19.85;;;13.27;;
18822;SDS011;9540;51.550;7.980;2023-05-21T12:22:27;19.08;;;13.57;;
18822;SDS011;9540;51.550;7.980;2023-05-21T12:24:55;21.20;;;14.77;;
18822;SDS011;9540;51.550;7.980;2023-05-21T12:27:25;18.60;;;14.23;;
18822;SDS011;9540;51.550;7.980;2023-05-21T12:29:52;21.15;;;15.00;;
18822;SDS011;9540;51.550;7.980;2023-05-21T12:32:20;19.02;;;13.52;;
18822;SDS011;9540;51.550;7.980;2023-05-21T12:34:48;17.58;;;13.00;;
18822;SDS011;9540;51.550;7.980;2023-05-21T12:37:18;21.17;;;15.30;;
18822;SDS011;9540;51.550;7.980;2023-05-21T12:39:48;16.40;;;13.77;;
18822;SDS011;9540;51.550;7.980;2023-05-21T12:42:22;19.90;;;15.43;;
18822;SDS011;9540;51.550;7.980;2023-05-21T12:44:51;19.25;;;14.20;;
18822;SDS011;9540;51.550;7.980;2023-05-21T12:47:21;17.50;;;12.25;;
18822;SDS011;9540;51.550;7.980;2023-05-21T12:49:49;20.02;;;14.02;;
18822;SDS011;9540;51.550;7.980;2023-05-21T12:52:19;18.10;;;14.32;;
18822;SDS011;9540;51.550;7.980;2023-05-21T12:54:49;18.98;;;13.80;;
18822;SDS011;9540;51.550;7.980;2023-05-21T12:57:18;18.27;;;14.70;;
18822;SDS011;9540;51.550;7.980;2023-05-21T12:59:48;18.75;;;14.82;;
18822;SDS011;9540;51.550;7.980;2023-05-21T13:02:19;17.88;;;13.90;;
18822;SDS011;9540;51.550;7.980;2023-05-21T13:04:52;19.17;;;12.82;;
18822;SDS011;9540;51.550;7.980;2023-05-21T13:07:20;17.63;;;13.55;;
18822;SDS011;9540;51.550;7.980;2023-05-21T13:09:49;15.25;;;12.70;;
18822;SDS011;9540;51.550;7.980;2023-05-21T13:12:17;18.55;;;13.57;;
18822;SDS011;9540;51.550;7.980;2023-05-21T13:14:46;17.17;;;14.10;;
18822;SDS011;9540;51.550;7.980;2023-05-21T13:17:13;21.92;;;13.70;;
18822;SDS011;9540;51.550;7.980;2023-05-21T13:19:41;15.80;;;13.18;;
18822;SDS011;9540;51.550;7.980;2023-05-21T13:22:08;20.67;;;14.30;;
18822;SDS011;9540;51.550;7.980;2023-05-21T13:24:35;16.00;;;12.23;;
18822;SDS011;9540;51.550;7.980;2023-05-21T13:27:05;16.77;;;12.95;;
18822;SDS011;9540;51.550;7.980;2023-05-21T13:29:32;20.38;;;14.48;;
18822;SDS011;9540;51.550;7.980;2023-05-21T13:32:02;17.52;;;14.25;;
18822;SDS011;9540;51.550;7.980;2023-05-21T13:34:29;17.08;;;13.00;;
18822;SDS011;9540;51.550;7.980;2023-05-21T13:36:56;14.77;;;11.98;;
18822;SDS011;9540;51.550;7.980;2023-05-21T13:39:24;16.45;;;12.00;;
18822;SDS011;9540;51.550;7.980;2023-05-21T13:41:52;13.88;;;11.23;;
18822;SDS011;9540;51.550;7.980;2023-05-21T13:44:20;17.52;;;13.32;;
18822;SDS011;9540;51.550;7.980;2023-05-21T13:46:47;17.15;;;12.27;;
18822;SDS011;9540;51.550;7.980;2023-05-21T13:49:15;13.23;;;11.82;;
18822;SDS011;9540;51.550;7.980;2023-05-21T13:51:42;14.98;;;12.23;;
18822;SDS011;9540;51.550;7.980;2023-05-21T13:54:09;13.82;;;11.90;;
18822;SDS011;9540;51.550;7.980;2023-05-21T13:56:38;14.90;;;11.70;;
18822;SDS011;9540;51.550;7.980;2023-05-21T13:59:05;14.63;;;12.25;;
18822;SDS011;9540;51.550;7.980;2023-05-21T14:01:34;16.35;;;12.30;;
18822;SDS011;9540;51.550;7.980;2023-05-21T14:04:01;14.93;;;11.80;;
18822;SDS011;9540;51.550;7.980;2023-05-21T14:06:29;16.65;;;11.70;;
18822;SDS011;9540;51.550;7.980;2023-05-21T14:08:57;13.75;;;11.35;;
18822;SDS011;9540;51.550;7.980;2023-05-21T14:11:25;13.80;;;11.63;;
18822;SDS011;9540;51.550;7.980;2023-05-21T14:13:53;16.08;;;12.02;;
18822;SDS011;9540;51.550;7.980;2023-05-21T14:16:21;15.50;;;11.60;;
18822;SDS011;9540;51.550;7.980;2023-05-21T14:18:50;12.82;;;10.50;;
18822;SDS011;9540;51.550;7.980;2023-05-21T14:21:17;12.70;;;11.07;;
18822;SDS011;9540;51.550;7.980;2023-05-21T14:23:45;12.15;;;10.88;;
18822;SDS011;9540;51.550;7.980;2023-05-21T14:26:12;12.95;;;11.13;;
18822;SDS011;9540;51.550;7.980;2023-05-21T14:28:40;17.23;;;12.10;;
18822;SDS011;9540;51.550;7.980;2023-05-21T14:31:07;16.13;;;12.52;;
18822;SDS011;9540;51.550;7.980;2023-05-21T14:33:35;13.13;;;11.73;;
18822;SDS011;9540;51.550;7.980;2023-05-21T14:36:05;16.90;;;12.68;;
18822;SDS011;9540;51.550;7.980;2023-05-21T14:38:32;15.10;;;11.40;;
18822;SDS011;9540;51.550;7.980;2023-05-21T14:40:59;14.10;;;12.02;;
18822;SDS011;9540;51.550;7.980;2023-05-21T14:43:26;17.90;;;12.07;;
18822;SDS011;9540;51.550;7.980;2023-05-21T14:45:54;13.10;;;11.77;;
18822;SDS011;9540;51.550;7.980;2023-05-21T14:48:21;14.30;;;11.13;;
18822;SDS011;9540;51.550;7.980;2023-05-21T14:50:48;17.95;;;11.80;;
18822;SDS011;9540;51.550;7.980;2023-05-21T14:53:17;14.65;;;11.63;;